createdAt,value
2023-01-08T00:00:51.650Z,985.33
2023-01-08T00:01:51.418Z,985.35
2023-01-08T00:02:51.527Z,985.43
2023-01-08T00:03:51.536Z,985.37
2023-01-08T00:04:51.381Z,985.23
2023-01-08T00:05:51.385Z,985.29
2023-01-08T00:06:51.387Z,985.26
2023-01-08T00:07:51.365Z,985.25
2023-01-08T00:08:51.337Z,985.20
2023-01-08T00:09:51.332Z,985.25
2023-01-08T00:10:51.318Z,985.28
2023-01-08T00:11:51.323Z,985.27
2023-01-08T00:12:51.324Z,985.25
2023-01-08T00:13:51.285Z,985.26
2023-01-08T00:14:51.275Z,985.24
2023-01-08T00:15:51.263Z,985.18
2023-01-08T00:16:51.330Z,985.19
2023-01-08T00:17:51.260Z,985.20
2023-01-08T00:18:51.230Z,985.15
2023-01-08T00:19:51.212Z,985.14
2023-01-08T00:20:51.213Z,985.14
2023-01-08T00:21:51.192Z,985.16
2023-01-08T00:22:51.212Z,985.19
2023-01-08T00:23:51.173Z,985.12
2023-01-08T00:24:51.157Z,985.13
2023-01-08T00:25:51.176Z,985.02
2023-01-08T00:26:51.152Z,985.00
2023-01-08T00:27:51.129Z,984.95
2023-01-08T00:28:51.121Z,984.97
2023-01-08T00:29:51.111Z,984.99
2023-01-08T00:30:51.193Z,984.94
2023-01-08T00:31:51.091Z,984.87
2023-01-08T00:32:51.065Z,984.96
2023-01-08T00:33:51.070Z,984.92
2023-01-08T00:34:51.041Z,984.91
2023-01-08T00:35:51.045Z,984.90
2023-01-08T00:36:51.030Z,984.90
2023-01-08T00:37:51.009Z,984.82
2023-01-08T00:38:51.037Z,984.85
2023-01-08T00:39:50.994Z,984.86
2023-01-08T00:40:50.978Z,984.86
2023-01-08T00:41:50.975Z,984.89
2023-01-08T00:42:50.977Z,984.89
2023-01-08T00:43:50.961Z,984.86
2023-01-08T00:44:50.950Z,984.88
2023-01-08T00:45:50.953Z,984.89
2023-01-08T00:46:50.923Z,984.88
2023-01-08T00:47:50.915Z,984.90
2023-01-08T00:48:50.890Z,984.85
2023-01-08T00:49:50.882Z,984.82
2023-01-08T00:50:50.866Z,984.87
2023-01-08T00:51:50.868Z,984.89
2023-01-08T00:52:50.852Z,984.84
2023-01-08T00:53:50.839Z,984.78
2023-01-08T00:54:50.823Z,984.84
2023-01-08T00:55:50.814Z,984.71
2023-01-08T00:56:50.821Z,984.73
2023-01-08T00:57:50.786Z,984.77
2023-01-08T00:58:50.778Z,984.74
2023-01-08T00:59:50.772Z,984.74
2023-01-08T01:00:50.804Z,984.80
2023-01-08T01:01:50.939Z,984.80
2023-01-08T01:02:50.751Z,984.75
2023-01-08T01:03:50.765Z,984.77
2023-01-08T01:04:50.713Z,984.71
2023-01-08T01:05:50.704Z,984.69
2023-01-08T01:06:50.709Z,984.72
2023-01-08T01:07:50.679Z,984.68
2023-01-08T01:08:50.667Z,984.66
2023-01-08T01:09:50.644Z,984.66
2023-01-08T01:10:50.641Z,984.71
2023-01-08T01:11:50.639Z,984.66
2023-01-08T01:12:50.627Z,984.68
2023-01-08T01:13:50.609Z,984.67
2023-01-08T01:14:50.622Z,984.67
2023-01-08T01:15:50.592Z,984.68
2023-01-08T01:16:50.654Z,984.69
2023-01-08T01:17:50.560Z,984.70
2023-01-08T01:18:50.561Z,984.73
2023-01-08T01:19:50.542Z,984.76
2023-01-08T01:20:50.537Z,984.77
2023-01-08T01:21:50.523Z,984.71
2023-01-08T01:22:50.502Z,984.69
2023-01-08T01:23:50.492Z,984.72
2023-01-08T01:24:50.479Z,984.72
2023-01-08T01:25:50.460Z,984.69
2023-01-08T01:26:50.467Z,984.70
2023-01-08T01:27:50.468Z,984.72
2023-01-08T01:28:50.427Z,984.75
2023-01-08T01:29:50.420Z,984.74
2023-01-08T01:30:50.468Z,984.71
2023-01-08T01:31:50.395Z,984.71
2023-01-08T01:32:50.399Z,984.76
2023-01-08T01:33:50.396Z,984.74
2023-01-08T01:34:50.367Z,984.71
2023-01-08T01:35:50.362Z,984.71
2023-01-08T01:36:50.345Z,984.69
2023-01-08T01:37:50.322Z,984.76
2023-01-08T01:38:50.317Z,984.78
2023-01-08T01:39:50.314Z,984.78
2023-01-08T01:40:50.287Z,984.79
2023-01-08T01:41:50.285Z,984.74
2023-01-08T01:42:50.304Z,984.72
2023-01-08T01:43:50.255Z,984.76
2023-01-08T01:44:50.255Z,984.75
2023-01-08T01:45:50.304Z,984.69
2023-01-08T01:46:50.234Z,984.69
2023-01-08T01:47:50.222Z,984.69
2023-01-08T01:48:50.203Z,984.66
2023-01-08T01:49:50.193Z,984.65
2023-01-08T01:50:50.200Z,984.66
2023-01-08T01:51:50.162Z,984.71
2023-01-08T01:52:50.163Z,984.70
2023-01-08T01:53:50.154Z,984.68
2023-01-08T01:54:50.131Z,984.67
2023-01-08T01:55:50.127Z,984.71
2023-01-08T01:56:50.112Z,984.75
2023-01-08T01:57:50.115Z,984.71
2023-01-08T01:58:50.106Z,984.79
2023-01-08T01:59:50.082Z,984.74
2023-01-08T02:00:50.072Z,984.75
2023-01-08T02:01:50.252Z,984.75
2023-01-08T02:02:50.058Z,984.76
2023-01-08T02:03:50.110Z,984.76
2023-01-08T02:04:50.046Z,984.78
2023-01-08T02:05:50.004Z,984.72
2023-01-08T02:06:50.040Z,984.70
2023-01-08T02:07:49.984Z,984.73
2023-01-08T02:08:49.977Z,984.73
2023-01-08T02:09:49.959Z,984.71
2023-01-08T02:10:49.945Z,984.64
2023-01-08T02:11:49.944Z,984.63
2023-01-08T02:12:49.922Z,984.71
2023-01-08T02:13:49.910Z,984.62
2023-01-08T02:14:49.912Z,984.61
2023-01-08T02:15:49.908Z,984.62
2023-01-08T02:16:49.997Z,984.65
2023-01-08T02:17:49.874Z,984.60
2023-01-08T02:18:49.869Z,984.55
2023-01-08T02:19:49.841Z,984.58
2023-01-08T02:20:49.829Z,984.58
2023-01-08T02:21:49.824Z,984.60
2023-01-08T02:22:49.833Z,984.57
2023-01-08T02:23:49.825Z,984.58
2023-01-08T02:24:49.791Z,984.54
2023-01-08T02:25:49.781Z,984.52
2023-01-08T02:26:49.763Z,984.57
2023-01-08T02:27:49.766Z,984.51
2023-01-08T02:28:49.759Z,984.52
2023-01-08T02:29:49.728Z,984.48
2023-01-08T02:30:49.837Z,984.47
2023-01-08T02:31:49.704Z,984.39
2023-01-08T02:32:49.687Z,984.42
2023-01-08T02:33:49.700Z,984.35
2023-01-08T02:34:49.668Z,984.36
2023-01-08T02:35:49.669Z,984.38
2023-01-08T02:36:49.656Z,984.35
2023-01-08T02:37:49.646Z,984.37
2023-01-08T02:38:49.638Z,984.32
2023-01-08T02:39:49.635Z,984.25
2023-01-08T02:40:49.601Z,984.25
2023-01-08T02:41:49.607Z,984.27
2023-01-08T02:42:49.592Z,984.26
2023-01-08T02:43:49.572Z,984.28
2023-01-08T02:44:49.569Z,984.19
2023-01-08T02:45:49.600Z,984.21
2023-01-08T02:46:49.546Z,984.14
2023-01-08T02:47:49.526Z,984.16
2023-01-08T02:48:49.530Z,984.14
2023-01-08T02:49:49.520Z,984.13
2023-01-08T02:50:49.509Z,984.08
2023-01-08T02:51:49.477Z,984.11
2023-01-08T02:52:49.464Z,984.04
2023-01-08T02:53:49.483Z,984.06
2023-01-08T02:54:49.445Z,984.06
2023-01-08T02:55:49.435Z,983.99
2023-01-08T02:56:49.445Z,983.96
2023-01-08T02:57:49.407Z,983.93
2023-01-08T02:58:49.414Z,983.95
2023-01-08T02:59:49.410Z,983.91
2023-01-08T03:00:49.367Z,983.94
2023-01-08T03:01:49.554Z,983.86
2023-01-08T03:02:50.591Z,983.82
2023-01-08T03:03:49.397Z,983.82
2023-01-08T03:04:49.332Z,983.85
2023-01-08T03:05:49.329Z,983.81
2023-01-08T03:06:49.315Z,983.77
2023-01-08T03:07:49.296Z,983.79
2023-01-08T03:08:49.285Z,983.76
2023-01-08T03:09:49.286Z,983.72
2023-01-08T03:10:49.283Z,983.74
2023-01-08T03:11:49.251Z,983.76
2023-01-08T03:12:49.243Z,983.75
2023-01-08T03:13:49.227Z,983.77
2023-01-08T03:14:49.213Z,983.75
2023-01-08T03:15:49.216Z,983.70
2023-01-08T03:16:49.354Z,983.72
2023-01-08T03:17:49.208Z,983.67
2023-01-08T03:18:49.201Z,983.69
2023-01-08T03:19:49.179Z,983.65
2023-01-08T03:20:49.165Z,983.66
2023-01-08T03:21:49.143Z,983.67
2023-01-08T03:22:49.130Z,983.71
2023-01-08T03:23:49.115Z,983.68
2023-01-08T03:24:49.107Z,983.66
2023-01-08T03:25:49.095Z,983.66
2023-01-08T03:28:16.434Z,983.66
2023-01-08T03:28:21.261Z,983.63
2023-01-08T03:29:21.209Z,983.61
2023-01-08T03:30:21.204Z,983.55
2023-01-08T03:31:21.209Z,983.61
2023-01-08T03:32:21.186Z,983.57
2023-01-08T03:33:21.174Z,983.55
2023-01-08T03:34:21.163Z,983.51
2023-01-08T03:35:21.146Z,983.47
2023-01-08T03:36:21.130Z,983.48
2023-01-08T03:37:21.116Z,983.54
2023-01-08T03:38:21.133Z,983.48
2023-01-08T03:39:21.099Z,983.57
2023-01-08T03:40:21.100Z,983.56
2023-01-08T03:41:21.077Z,983.50
2023-01-08T03:42:21.074Z,983.51
2023-01-08T03:43:21.060Z,983.53
2023-01-08T03:44:21.048Z,983.49
2023-01-08T03:45:21.037Z,983.52
2023-01-08T03:46:21.147Z,983.50
2023-01-08T03:47:21.013Z,983.51
2023-01-08T03:48:21.008Z,983.47
2023-01-08T03:49:21.008Z,983.50
2023-01-08T03:50:20.979Z,983.52
2023-01-08T03:51:20.972Z,983.50
2023-01-08T03:52:20.950Z,983.53
2023-01-08T03:53:20.953Z,983.48
2023-01-08T03:54:20.949Z,983.54
2023-01-08T03:55:20.936Z,983.56
2023-01-08T03:56:20.940Z,983.52
2023-01-08T03:57:20.903Z,983.54
2023-01-08T03:58:20.882Z,983.50
2023-01-08T03:59:20.918Z,983.49
2023-01-08T04:00:20.875Z,983.44
2023-01-08T04:01:20.980Z,983.48
2023-01-08T04:02:21.039Z,983.51
2023-01-08T04:03:20.825Z,983.54
2023-01-08T04:04:20.969Z,983.50
2023-01-08T04:05:20.807Z,983.55
2023-01-08T04:06:20.829Z,983.51
2023-01-08T04:07:20.785Z,983.50
2023-01-08T04:08:20.775Z,983.51
2023-01-08T04:09:20.784Z,983.48
2023-01-08T04:10:20.757Z,983.48
2023-01-08T04:11:20.745Z,983.48
2023-01-08T04:12:20.739Z,983.52
2023-01-08T04:13:20.737Z,983.48
2023-01-08T04:14:20.711Z,983.46
2023-01-08T04:15:20.735Z,983.48
2023-01-08T04:16:20.749Z,983.50
2023-01-08T04:17:20.671Z,983.47
2023-01-08T04:18:20.652Z,983.47
2023-01-08T04:19:20.676Z,983.50
2023-01-08T04:20:20.631Z,983.51
2023-01-08T04:21:20.641Z,983.52
2023-01-08T04:22:20.614Z,983.49
2023-01-08T04:23:20.618Z,983.46
2023-01-08T04:24:20.593Z,983.45
2023-01-08T04:25:20.594Z,983.43
2023-01-08T04:26:20.572Z,983.35
2023-01-08T04:27:20.555Z,983.38
2023-01-08T04:28:20.534Z,983.33
2023-01-08T04:29:20.558Z,983.31
2023-01-08T04:30:20.528Z,983.29
2023-01-08T04:31:20.570Z,983.30
2023-01-08T04:32:20.500Z,983.31
2023-01-08T04:33:20.493Z,983.28
2023-01-08T04:34:20.468Z,983.23
2023-01-08T04:35:20.498Z,983.27
2023-01-08T04:36:20.477Z,983.32
2023-01-08T04:37:20.433Z,983.29
2023-01-08T04:38:20.441Z,983.30
2023-01-08T04:39:20.424Z,983.37
2023-01-08T04:40:20.425Z,983.35
2023-01-08T04:41:20.405Z,983.34
2023-01-08T04:42:20.411Z,983.29
2023-01-08T04:43:20.371Z,983.25
2023-01-08T04:44:20.356Z,983.25
2023-01-08T04:45:20.350Z,983.20
2023-01-08T04:46:20.471Z,983.23
2023-01-08T04:47:20.318Z,983.30
2023-01-08T04:48:20.324Z,983.32
2023-01-08T04:49:20.322Z,983.25
2023-01-08T04:50:20.293Z,983.44
2023-01-08T04:51:20.296Z,983.33
2023-01-08T04:52:20.269Z,983.29
2023-01-08T04:53:20.254Z,983.25
2023-01-08T04:54:20.249Z,983.29
2023-01-08T04:55:20.249Z,983.27
2023-01-08T04:56:20.248Z,983.22
2023-01-08T04:57:20.229Z,983.18
2023-01-08T04:58:20.200Z,983.20
2023-01-08T04:59:20.184Z,983.20
2023-01-08T05:00:20.170Z,983.17
2023-01-08T05:01:20.343Z,983.12
2023-01-08T05:02:20.477Z,983.11
2023-01-08T05:03:20.280Z,983.08
2023-01-08T05:04:20.140Z,983.06
2023-01-08T05:05:20.125Z,983.03
2023-01-08T05:06:20.110Z,983.01
2023-01-08T05:07:20.099Z,983.04
2023-01-08T05:08:20.108Z,983.04
2023-01-08T05:09:20.088Z,983.00
2023-01-08T05:10:20.075Z,983.04
2023-01-08T05:11:20.057Z,983.04
2023-01-08T05:12:20.045Z,983.05
2023-01-08T05:13:20.024Z,983.04
2023-01-08T05:14:20.045Z,983.04
2023-01-08T05:15:20.018Z,983.07
2023-01-08T05:16:20.064Z,983.09
2023-01-08T05:17:19.977Z,983.01
2023-01-08T05:18:19.965Z,983.04
2023-01-08T05:19:20.076Z,983.05
2023-01-08T05:20:19.959Z,983.01
2023-01-08T05:21:19.929Z,982.91
2023-01-08T05:22:19.919Z,982.94
2023-01-08T05:23:19.918Z,982.94
2023-01-08T05:24:19.891Z,982.94
2023-01-08T05:25:19.897Z,982.92
2023-01-08T05:26:19.874Z,982.89
2023-01-08T05:27:19.862Z,982.92
2023-01-08T05:28:19.865Z,982.91
2023-01-08T05:29:19.840Z,982.87
2023-01-08T05:30:19.834Z,982.85
2023-01-08T05:31:19.952Z,982.92
2023-01-08T05:32:19.803Z,982.87
2023-01-08T05:33:19.794Z,982.91
2023-01-08T05:34:19.773Z,982.84
2023-01-08T05:35:19.795Z,982.89
2023-01-08T05:36:19.767Z,982.83
2023-01-08T05:37:19.751Z,982.81
2023-01-08T05:38:19.745Z,982.83
2023-01-08T05:39:19.734Z,982.76
2023-01-08T05:40:19.712Z,982.77
2023-01-08T05:41:19.718Z,982.74
2023-01-08T05:42:19.692Z,982.79
2023-01-08T05:43:19.677Z,982.79
2023-01-08T05:44:19.670Z,982.77
2023-01-08T05:45:19.668Z,982.78
2023-01-08T05:46:19.686Z,982.75
2023-01-08T05:47:19.644Z,982.73
2023-01-08T05:48:19.626Z,982.72
2023-01-08T05:49:19.612Z,982.70
2023-01-08T05:50:19.592Z,982.69
2023-01-08T05:51:19.601Z,982.69
2023-01-08T05:52:19.564Z,982.71
2023-01-08T05:53:19.579Z,982.78
2023-01-08T05:54:19.572Z,982.78
2023-01-08T05:55:19.534Z,982.78
2023-01-08T05:56:19.525Z,982.79
2023-01-08T05:57:19.528Z,982.77
2023-01-08T05:58:19.505Z,982.73
2023-01-08T05:59:19.501Z,982.74
2023-01-08T06:00:19.495Z,982.76
2023-01-08T06:01:19.501Z,982.77
2023-01-08T06:02:19.463Z,982.78
2023-01-08T06:03:19.452Z,982.79
2023-01-08T06:04:19.489Z,982.85
2023-01-08T06:05:19.421Z,982.87
2023-01-08T06:06:19.411Z,982.85
2023-01-08T06:07:19.404Z,982.80
2023-01-08T06:08:19.388Z,982.81
2023-01-08T06:09:19.374Z,982.80
2023-01-08T06:10:19.397Z,982.74
2023-01-08T06:11:19.352Z,982.79
2023-01-08T06:12:19.344Z,982.80
2023-01-08T06:13:19.323Z,982.84
2023-01-08T06:14:19.313Z,982.78
2023-01-08T06:15:19.309Z,982.79
2023-01-08T06:16:19.453Z,982.80
2023-01-08T06:17:19.289Z,982.77
2023-01-08T06:18:19.293Z,982.77
2023-01-08T06:19:19.264Z,982.76
2023-01-08T06:20:19.252Z,982.77
2023-01-08T06:21:19.270Z,982.81
2023-01-08T06:22:19.231Z,982.85
2023-01-08T06:23:19.209Z,982.81
2023-01-08T06:24:19.215Z,982.84
2023-01-08T06:25:19.184Z,982.77
2023-01-08T06:26:19.197Z,982.75
2023-01-08T06:27:19.167Z,982.85
2023-01-08T06:28:19.169Z,982.79
2023-01-08T06:29:19.139Z,982.82
2023-01-08T06:30:19.144Z,982.75
2023-01-08T06:31:19.191Z,982.76
2023-01-08T06:32:19.128Z,982.75
2023-01-08T06:33:21.055Z,982.77
2023-01-08T06:34:19.102Z,982.80
2023-01-08T06:35:19.081Z,982.83
2023-01-08T06:36:19.076Z,982.82
2023-01-08T06:37:19.058Z,982.81
2023-01-08T06:38:19.052Z,982.83
2023-01-08T06:39:19.028Z,982.82
2023-01-08T06:40:19.012Z,982.83
2023-01-08T06:41:19.008Z,982.81
2023-01-08T06:42:19.037Z,982.82
2023-01-08T06:43:18.977Z,982.80
2023-01-08T06:44:18.974Z,982.80
2023-01-08T06:45:18.992Z,982.81
2023-01-08T06:46:19.061Z,982.79
2023-01-08T06:47:18.945Z,982.71
2023-01-08T06:48:18.934Z,982.72
2023-01-08T06:49:18.926Z,982.64
2023-01-08T06:50:18.908Z,982.55
2023-01-08T06:51:18.897Z,982.61
2023-01-08T06:52:18.878Z,982.53
2023-01-08T06:53:18.878Z,982.61
2023-01-08T06:54:18.865Z,982.61
2023-01-08T06:55:18.840Z,982.64
2023-01-08T06:56:18.831Z,982.77
2023-01-08T06:57:18.827Z,982.74
2023-01-08T06:58:18.812Z,982.73
2023-01-08T06:59:18.814Z,982.69
2023-01-08T07:00:18.803Z,982.72
2023-01-08T07:01:18.958Z,982.81
2023-01-08T07:02:19.110Z,982.76
2023-01-08T07:03:18.823Z,982.78
2023-01-08T07:04:18.773Z,982.82
2023-01-08T07:05:18.732Z,982.86
2023-01-08T07:06:18.735Z,982.86
2023-01-08T07:07:18.702Z,982.85
2023-01-08T07:08:18.710Z,982.95
2023-01-08T07:09:18.677Z,983.10
2023-01-08T07:10:20.143Z,983.38
2023-01-08T07:11:18.678Z,983.48
2023-01-08T07:12:18.652Z,983.47
2023-01-08T07:13:18.635Z,983.51
2023-01-08T07:14:18.632Z,983.53
2023-01-08T07:15:18.636Z,983.31
2023-01-08T07:16:18.656Z,983.50
2023-01-08T07:17:18.608Z,983.52
2023-01-08T07:18:18.588Z,983.57
2023-01-08T07:19:18.575Z,983.53
2023-01-08T07:20:18.581Z,983.68
2023-01-08T07:21:18.536Z,983.72
2023-01-08T07:22:18.543Z,983.73
2023-01-08T07:23:18.516Z,983.69
2023-01-08T07:24:18.512Z,983.58
2023-01-08T07:25:18.503Z,983.60
2023-01-08T07:26:18.497Z,983.63
2023-01-08T07:27:18.490Z,983.62
2023-01-08T07:28:18.481Z,983.65
2023-01-08T07:29:18.462Z,983.49
2023-01-08T07:30:29.414Z,983.41
2023-01-08T07:31:18.541Z,983.42
2023-01-08T07:32:18.418Z,983.43
2023-01-08T07:33:18.418Z,983.45
2023-01-08T07:34:18.418Z,983.47
2023-01-08T07:35:18.386Z,983.49
2023-01-08T07:36:18.375Z,983.55
2023-01-08T07:37:18.378Z,983.56
2023-01-08T07:38:18.359Z,983.63
2023-01-08T07:39:18.335Z,983.65
2023-01-08T07:40:18.341Z,983.63
2023-01-08T07:41:18.334Z,983.62
2023-01-08T07:42:18.344Z,983.65
2023-01-08T07:43:18.292Z,983.69
2023-01-08T07:44:18.274Z,983.72
2023-01-08T07:45:18.306Z,983.72
2023-01-08T07:46:18.324Z,983.74
2023-01-08T07:47:18.238Z,983.78
2023-01-08T07:48:18.244Z,983.77
2023-01-08T07:49:18.226Z,983.72
2023-01-08T07:50:18.212Z,983.71
2023-01-08T07:51:18.219Z,983.73
2023-01-08T07:52:18.185Z,983.65
2023-01-08T07:53:18.205Z,983.63
2023-01-08T07:54:18.196Z,983.59
2023-01-08T07:55:18.170Z,983.56
2023-01-08T07:56:18.145Z,983.58
2023-01-08T07:57:18.137Z,983.62
2023-01-08T07:58:18.124Z,983.54
2023-01-08T07:59:18.122Z,983.57
2023-01-08T08:00:18.111Z,983.48
2023-01-08T08:01:18.216Z,983.48
2023-01-08T08:02:18.274Z,983.48
2023-01-08T08:03:18.163Z,983.50
2023-01-08T08:04:18.077Z,983.45
2023-01-08T08:05:18.068Z,983.48
2023-01-08T08:06:18.031Z,983.46
2023-01-08T08:07:18.032Z,983.45
2023-01-08T08:08:18.006Z,983.44
2023-01-08T08:09:18.008Z,983.42
2023-01-08T08:10:17.994Z,983.43
2023-01-08T08:11:17.996Z,983.42
2023-01-08T08:12:17.972Z,983.39
2023-01-08T08:13:17.955Z,983.38
2023-01-08T08:14:17.954Z,983.36
2023-01-08T08:15:17.933Z,983.37
2023-01-08T08:16:18.046Z,983.38
2023-01-08T08:17:17.915Z,983.35
2023-01-08T08:18:17.901Z,983.30
2023-01-08T08:19:17.895Z,983.30
2023-01-08T08:20:17.892Z,983.25
2023-01-08T08:21:17.880Z,983.27
2023-01-08T08:22:17.863Z,983.24
2023-01-08T08:23:17.852Z,983.28
2023-01-08T08:24:17.851Z,983.27
2023-01-08T08:25:17.826Z,983.25
2023-01-08T08:26:17.815Z,983.26
2023-01-08T08:27:17.798Z,983.21
2023-01-08T08:28:17.801Z,983.22
2023-01-08T08:29:17.772Z,983.28
2023-01-08T08:30:17.798Z,983.25
2023-01-08T08:31:17.793Z,983.21
2023-01-08T08:32:17.756Z,983.29
2023-01-08T08:33:17.732Z,983.33
2023-01-08T08:34:17.729Z,983.34
2023-01-08T08:35:17.730Z,983.36
2023-01-08T08:36:17.704Z,983.38
2023-01-08T08:37:17.686Z,983.42
2023-01-08T08:38:17.698Z,983.39
2023-01-08T08:39:17.672Z,983.34
2023-01-08T08:40:17.669Z,983.37
2023-01-08T08:41:17.657Z,983.32
2023-01-08T08:42:17.631Z,983.30
2023-01-08T08:43:17.627Z,983.30
2023-01-08T08:44:17.607Z,983.23
2023-01-08T08:45:17.611Z,983.25
2023-01-08T08:46:17.641Z,983.24
2023-01-08T08:47:17.616Z,983.18
2023-01-08T08:48:17.584Z,983.16
2023-01-08T08:49:17.553Z,983.13
2023-01-08T08:50:17.548Z,983.15
2023-01-08T08:51:18.552Z,983.09
2023-01-08T08:52:17.534Z,983.11
2023-01-08T08:53:17.528Z,983.08
2023-01-08T08:54:17.507Z,983.05
2023-01-08T08:55:17.601Z,983.04
2023-01-08T08:56:17.479Z,983.02
2023-01-08T08:57:17.471Z,983.05
2023-01-08T08:58:17.493Z,983.00
2023-01-08T08:59:17.458Z,982.96
2023-01-08T09:00:17.447Z,983.00
2023-01-08T09:01:17.599Z,982.99
2023-01-08T09:02:17.630Z,983.04
2023-01-08T09:03:17.457Z,983.03
2023-01-08T09:04:17.400Z,983.04
2023-01-08T09:05:17.391Z,983.00
2023-01-08T09:06:17.365Z,982.96
2023-01-08T09:07:17.378Z,982.94
2023-01-08T09:08:17.368Z,982.97
2023-01-08T09:09:17.324Z,982.97
2023-01-08T09:10:17.317Z,982.99
2023-01-08T09:11:17.320Z,983.02
2023-01-08T09:12:17.293Z,983.00
2023-01-08T09:13:17.287Z,983.03
2023-01-08T09:14:17.284Z,982.98
2023-01-08T09:15:17.272Z,982.98
2023-01-08T09:16:17.282Z,982.97
2023-01-08T09:17:17.278Z,982.98
2023-01-08T09:18:17.225Z,982.94
2023-01-08T09:19:17.212Z,982.91
2023-01-08T09:20:17.199Z,982.94
2023-01-08T09:21:17.192Z,982.89
2023-01-08T09:22:17.200Z,982.91
2023-01-08T09:23:17.205Z,982.90
2023-01-08T09:24:17.161Z,982.94
2023-01-08T09:25:17.153Z,982.97
2023-01-08T09:26:17.148Z,983.02
2023-01-08T09:27:17.152Z,982.98
2023-01-08T09:28:17.118Z,982.99
2023-01-08T09:29:17.118Z,983.00
2023-01-08T09:30:17.104Z,982.99
2023-01-08T09:31:17.151Z,983.01
2023-01-08T09:32:17.066Z,983.03
2023-01-08T09:33:17.073Z,983.05
2023-01-08T09:34:17.052Z,983.07
2023-01-08T09:35:17.057Z,983.03
2023-01-08T09:36:17.034Z,983.07
2023-01-08T09:37:17.017Z,983.03
2023-01-08T09:38:17.017Z,983.03
2023-01-08T09:39:16.996Z,983.03
2023-01-08T09:40:16.982Z,982.99
2023-01-08T09:41:16.968Z,982.98
2023-01-08T09:42:16.950Z,983.03
2023-01-08T09:43:16.964Z,982.99
2023-01-08T09:44:16.930Z,982.98
2023-01-08T09:45:16.920Z,983.00
2023-01-08T09:46:16.963Z,983.01
2023-01-08T09:47:16.904Z,983.03
2023-01-08T09:48:16.887Z,983.02
2023-01-08T09:49:16.885Z,983.01
2023-01-08T09:50:16.868Z,983.03
2023-01-08T09:51:16.848Z,983.07
2023-01-08T09:52:16.848Z,983.04
2023-01-08T09:53:16.831Z,983.00
2023-01-08T09:54:16.808Z,982.99
2023-01-08T09:55:16.843Z,982.95
2023-01-08T09:56:16.791Z,983.01
2023-01-08T09:57:16.791Z,982.99
2023-01-08T09:58:16.760Z,982.97
2023-01-08T09:59:16.783Z,982.92
2023-01-08T10:00:16.753Z,982.94
2023-01-08T10:01:16.936Z,982.88
2023-01-08T10:02:16.873Z,982.90
2023-01-08T10:03:16.718Z,982.87
2023-01-08T10:04:16.701Z,982.81
2023-01-08T10:05:16.687Z,982.84
2023-01-08T10:06:16.698Z,982.86
2023-01-08T10:07:16.695Z,982.79
2023-01-08T10:08:16.662Z,983.11
2023-01-08T10:09:16.643Z,982.79
2023-01-08T10:10:16.628Z,982.72
2023-01-08T10:11:16.665Z,982.63
2023-01-08T10:12:16.632Z,982.61
2023-01-08T10:13:16.598Z,982.60
2023-01-08T10:14:16.586Z,982.58
2023-01-08T10:15:16.576Z,982.59
2023-01-08T10:16:16.638Z,982.54
2023-01-08T10:17:16.576Z,982.60
2023-01-08T10:18:16.549Z,982.54
2023-01-08T10:19:16.533Z,982.52
2023-01-08T10:20:16.519Z,982.50
2023-01-08T10:21:16.524Z,982.57
2023-01-08T10:22:16.519Z,982.53
2023-01-08T10:23:16.479Z,982.56
2023-01-08T10:24:16.496Z,982.55
2023-01-08T10:25:16.535Z,982.49
2023-01-08T10:26:16.517Z,982.50
2023-01-08T10:27:16.437Z,982.45
2023-01-08T10:28:16.431Z,982.51
2023-01-08T10:29:16.418Z,982.53
2023-01-08T10:30:16.395Z,982.53
2023-01-08T10:31:16.503Z,982.52
2023-01-08T10:32:16.373Z,982.47
2023-01-08T10:33:16.373Z,982.46
2023-01-08T10:34:16.364Z,982.46
2023-01-08T10:35:16.353Z,982.43
2023-01-08T10:36:16.362Z,982.43
2023-01-08T10:37:16.368Z,982.43
2023-01-08T10:38:16.317Z,982.43
2023-01-08T10:39:16.323Z,982.43
2023-01-08T10:40:16.287Z,982.39
2023-01-08T10:41:16.273Z,982.41
2023-01-08T10:42:16.275Z,982.37
2023-01-08T10:43:16.254Z,982.34
2023-01-08T10:44:16.261Z,982.28
2023-01-08T10:45:16.250Z,982.30
2023-01-08T10:46:16.226Z,982.26
2023-01-08T10:47:16.243Z,982.19
2023-01-08T10:48:16.344Z,982.14
2023-01-08T10:49:16.188Z,982.12
2023-01-08T10:50:16.193Z,982.06
2023-01-08T10:51:16.164Z,982.03
2023-01-08T10:52:16.166Z,982.00
2023-01-08T10:53:16.144Z,981.96
2023-01-08T10:54:16.122Z,981.96
2023-01-08T10:55:16.115Z,981.97
2023-01-08T10:56:16.109Z,981.93
2023-01-08T10:57:16.114Z,981.95
2023-01-08T10:58:16.086Z,981.95
2023-01-08T10:59:16.068Z,981.87
2023-01-08T11:00:16.058Z,981.93
2023-01-08T11:01:16.212Z,981.93
2023-01-08T11:02:16.093Z,981.91
2023-01-08T11:03:16.021Z,981.88
2023-01-08T11:04:16.035Z,981.86
2023-01-08T11:05:15.997Z,981.86
2023-01-08T11:06:15.990Z,981.86
2023-01-08T11:07:15.977Z,981.86
2023-01-08T11:08:15.999Z,981.89
2023-01-08T11:09:15.961Z,981.88
2023-01-08T11:10:15.945Z,981.91
2023-01-08T11:11:15.930Z,981.84
2023-01-08T11:12:15.921Z,981.81
2023-01-08T11:13:15.936Z,981.76
2023-01-08T11:14:15.912Z,981.79
2023-01-08T11:15:15.891Z,981.73
2023-01-08T11:16:15.928Z,981.66
2023-01-08T11:17:15.868Z,981.66
2023-01-08T11:18:15.855Z,981.66
2023-01-08T11:19:16.388Z,981.66
2023-01-08T11:20:15.831Z,981.62
2023-01-08T11:21:15.827Z,981.58
2023-01-08T11:22:15.831Z,981.61
2023-01-08T11:23:15.801Z,981.55
2023-01-08T11:24:15.787Z,981.52
2023-01-08T11:25:15.797Z,981.52
2023-01-08T11:26:15.791Z,981.53
2023-01-08T11:27:15.755Z,981.55
2023-01-08T11:28:15.749Z,981.46
2023-01-08T11:29:15.756Z,981.47
2023-01-08T11:30:15.720Z,981.47
2023-01-08T11:31:15.775Z,981.45
2023-01-08T11:32:15.728Z,981.44
2023-01-08T11:33:15.686Z,981.42
2023-01-08T11:34:15.673Z,981.40
2023-01-08T11:35:15.663Z,981.41
2023-01-08T11:36:15.655Z,981.40
2023-01-08T11:37:15.672Z,981.36
2023-01-08T11:38:15.650Z,981.37
2023-01-08T11:39:15.631Z,981.34
2023-01-08T11:40:15.625Z,981.23
2023-01-08T11:41:15.610Z,981.23
2023-01-08T11:42:15.616Z,981.25
2023-01-08T11:43:15.607Z,981.21
2023-01-08T11:44:15.563Z,981.19
2023-01-08T11:45:15.561Z,981.15
2023-01-08T11:46:15.544Z,981.11
2023-01-08T11:47:15.539Z,981.17
2023-01-08T11:48:15.547Z,981.20
2023-01-08T11:49:15.510Z,981.09
2023-01-08T11:50:15.502Z,981.10
2023-01-08T11:51:15.499Z,981.05
2023-01-08T11:52:15.487Z,981.08
2023-01-08T11:53:15.465Z,981.10
2023-01-08T11:54:15.493Z,980.97
2023-01-08T11:55:15.461Z,981.00
2023-01-08T11:56:15.438Z,980.98
2023-01-08T11:57:15.421Z,980.99
2023-01-08T11:58:15.408Z,980.94
2023-01-08T11:59:15.401Z,980.90
2023-01-08T12:00:15.419Z,980.93
2023-01-08T12:01:15.413Z,980.88
2023-01-08T12:02:15.397Z,980.86
2023-01-08T12:03:15.426Z,980.86
2023-01-08T12:04:15.339Z,980.86
2023-01-08T12:05:15.346Z,980.84
2023-01-08T12:06:15.330Z,980.80
2023-01-08T12:07:15.305Z,980.80
2023-01-08T12:08:15.314Z,980.86
2023-01-08T12:09:15.284Z,980.80
2023-01-08T12:10:15.282Z,980.75
2023-01-08T12:11:15.262Z,980.75
2023-01-08T12:12:15.248Z,980.74
2023-01-08T12:13:15.246Z,980.71
2023-01-08T12:14:15.230Z,980.72
2023-01-08T12:15:15.214Z,980.70
2023-01-08T12:16:15.306Z,980.72
2023-01-08T12:17:15.211Z,980.62
2023-01-08T12:18:15.199Z,980.71
2023-01-08T12:19:15.175Z,980.72
2023-01-08T12:20:15.157Z,980.55
2023-01-08T12:21:15.171Z,980.58
2023-01-08T12:22:15.181Z,980.73
2023-01-08T12:23:15.123Z,980.59
2023-01-08T12:24:15.119Z,980.57
2023-01-08T12:25:15.121Z,980.61
2023-01-08T12:26:15.098Z,980.61
2023-01-08T12:27:15.098Z,980.55
2023-01-08T12:28:15.093Z,980.58
2023-01-08T12:29:15.067Z,980.57